MDST/STI METAR and TAF weather

Enter ICAO airport designator
Station Type Date Time Source
MDST METAR 2020/07/03 13:00 UTC NOAA

MDST 031300Z 14005KT 9999 SCT022 SCT300 28/24 Q1015


Station Type Date Time Source
MDST Decoded METAR 2020/07/03 13:00 UTC NOAA

Santiago, Dominican Republic (MDST) 19-27N 070-42W
Jul 03, 2020 - 09:00 AM EDT / 2020.07.03 1300 UTC
Wind: from the SE (140 degrees) at 6 MPH (5 KT):0
Visibility: greater than 7 mile(s):0
Sky conditions: partly cloudy
Temperature: 82 F (28 C)
Dew Point: 75 F (24 C)
Relative Humidity: 78%
Pressure (altimeter): 29.97 in. Hg (1015 hPa)
ob: MDST 031300Z 14005KT 9999 SCT022 SCT300 28/24 Q1015
cycle: 13

Station Type Date Time Source
MDST TAF 2020/07/03 12:40 UTC NOAA

TAF MDST 031000Z 0312/0412 11016KT 9999 SCT020 SCT300
BECMG 0312/0314 00000KT

Example: see airport list